Time;durP1;ratioP1;P1;durP2;ratioP2;P2;SDS_P1;SDS_P2;PMS_P1;PMS_P2;Temp;Humidity;BMP_temperature;BMP_pressure;BME280_temperature;BME280_humidity;BME280_pressure;Samples;Min_cycle;Max_cycle;Signal;HPM_P1;HPM_P2
2023/03/27 00:02:06;;;;;;;;;0.75;0.75;;;;;;;;5114831;27;8820;-76
2023/03/27 00:04:31;;;;;;;;;2.00;0.75;;;;;;;;5114619;27;8871;-76
2023/03/27 00:06:58;;;;;;;;;0.75;0.00;;;;;;;;5114757;27;10025;-76
2023/03/27 00:09:24;;;;;;;;;5.50;0.00;;;;;;;;5114477;27;8773;-75
2023/03/27 00:11:49;;;;;;;;;1.00;1.00;;;;;;;;5114396;27;10131;-72
2023/03/27 00:14:15;;;;;;;;;1.00;1.00;;;;;;;;5114599;28;8890;-76
2023/03/27 00:16:40;;;;;;;;;0.75;0.00;;;;;;;;5114697;27;8801;-76
2023/03/27 00:19:05;;;;;;;;;1.50;1.00;;;;;;;;5113478;28;8815;-76
2023/03/27 00:21:30;;;;;;;;;1.25;0.25;;;;;;;;5114405;27;8835;-76
2023/03/27 00:23:55;;;;;;;;;5.75;1.00;;;;;;;;5114243;27;8817;-76
2023/03/27 00:26:21;;;;;;;;;1.50;0.75;;;;;;;;5114300;28;8869;-75
2023/03/27 00:28:46;;;;;;;;;0.25;0.00;;;;;;;;5114691;28;8801;-75
2023/03/27 00:31:12;;;;;;;;;0.00;0.00;;;;;;;;5114465;27;8878;-75
2023/03/27 00:33:38;;;;;;;;;1.00;0.00;;;;;;;;5114615;27;8785;-76
2023/03/27 00:36:03;;;;;;;;;1.50;1.50;;;;;;;;5112436;27;10355;-75
2023/03/27 00:38:28;;;;;;;;;0.00;0.00;;;;;;;;5114382;27;8819;-76
2023/03/27 00:40:56;;;;;;;;;2.00;2.00;;;;;;;;5114074;27;8828;-76
2023/03/27 00:43:22;;;;;;;;;2.75;0.75;;;;;;;;5114000;27;10129;-76
2023/03/27 00:45:49;;;;;;;;;2.00;0.75;;;;;;;;5114199;27;10072;-76
2023/03/27 00:48:15;;;;;;;;;3.00;1.00;;;;;;;;5112656;27;10093;-76
2023/03/27 00:50:41;;;;;;;;;1.00;0.00;;;;;;;;5114073;27;10336;-76
2023/03/27 00:53:10;;;;;;;;;0.50;0.00;;;;;;;;5114285;27;8854;-76
2023/03/27 00:55:37;;;;;;;;;2.00;1.00;;;;;;;;5113932;27;10138;-75
2023/03/27 00:58:06;;;;;;;;;3.00;1.00;;;;;;;;5114095;27;10210;-76
2023/03/27 01:00:32;;;;;;;;;1.00;1.00;;;;;;;;5114077;28;10133;-76
2023/03/27 01:02:57;;;;;;;;;1.25;1.00;;;;;;;;5114205;27;10245;-75
2023/03/27 01:05:23;;;;;;;;;3.00;1.75;;;;;;;;5113850;28;8789;-76
2023/03/27 01:07:49;;;;;;;;;2.00;2.00;;;;;;;;5114516;27;8781;-76
2023/03/27 01:10:15;;;;;;;;;2.00;2.00;;;;;;;;5113495;27;8781;-76
2023/03/27 01:12:53;;;;;;;;;2.00;2.00;;;;;;;;5113728;27;10241;-76
2023/03/27 01:15:33;;;;;;;;;0.00;0.00;;;;;;;;5113508;27;11419;-76
2023/03/27 01:18:19;;;;;;;;;1.25;1.00;;;;;;;;5113669;27;10899;-76
2023/03/27 01:21:04;;;;;;;;;2.00;2.00;;;;;;;;5113477;27;10128;-76
2023/03/27 01:23:38;;;;;;;;;1.00;1.00;;;;;;;;5113508;27;10126;-76
2023/03/27 01:26:04;;;;;;;;;1.00;1.00;;;;;;;;5113259;28;10068;-76
2023/03/27 01:28:32;;;;;;;;;2.25;1.75;;;;;;;;5113366;27;10107;-76
2023/03/27 01:31:13;;;;;;;;;0.75;0.75;;;;;;;;5113542;28;9610;-76
2023/03/27 01:33:46;;;;;;;;;3.00;3.00;;;;;;;;5113478;28;10142;-76
2023/03/27 01:36:24;;;;;;;;;4.75;2.00;;;;;;;;5113188;27;10264;-76
2023/03/27 01:39:03;;;;;;;;;2.25;1.00;;;;;;;;5112677;27;10309;-76
2023/03/27 01:41:33;;;;;;;;;0.50;0.00;;;;;;;;5113143;27;10342;-76
2023/03/27 01:44:01;;;;;;;;;1.00;1.00;;;;;;;;5113046;27;10075;-75
2023/03/27 01:46:40;;;;;;;;;1.00;1.00;;;;;;;;5113388;27;10278;-76
2023/03/27 01:49:15;;;;;;;;;1.00;1.00;;;;;;;;5113065;27;10215;-76
2023/03/27 01:51:42;;;;;;;;;0.75;0.75;;;;;;;;5112903;28;10158;-76
2023/03/27 01:54:15;;;;;;;;;3.00;1.25;;;;;;;;5112851;27;10171;-76
2023/03/27 01:56:44;;;;;;;;;1.00;1.00;;;;;;;;5112988;27;10236;-76
2023/03/27 01:59:12;;;;;;;;;1.00;0.25;;;;;;;;5113022;27;10169;-77
2023/03/27 02:01:41;;;;;;;;;2.00;1.00;;;;;;;;5113115;27;10236;-76
2023/03/27 02:04:10;;;;;;;;;0.75;0.75;;;;;;;;5113022;27;10219;-75
2023/03/27 02:06:42;;;;;;;;;2.50;0.00;;;;;;;;5112677;27;10174;-75
2023/03/27 02:09:14;;;;;;;;;1.50;1.50;;;;;;;;5112668;27;10077;-76
2023/03/27 02:11:51;;;;;;;;;2.00;1.00;;;;;;;;5112837;27;10245;-75
2023/03/27 02:14:20;;;;;;;;;1.25;1.25;;;;;;;;5112940;27;10058;-76
2023/03/27 02:16:49;;;;;;;;;1.00;1.00;;;;;;;;5112923;27;10924;-76
2023/03/27 02:19:19;;;;;;;;;2.00;2.00;;;;;;;;5112681;28;10207;-76
2023/03/27 02:21:46;;;;;;;;;1.25;1.00;;;;;;;;5111504;27;10195;-76
2023/03/27 02:24:14;;;;;;;;;0.00;0.00;;;;;;;;5112078;27;10006;-76
2023/03/27 02:26:40;;;;;;;;;1.50;0.50;;;;;;;;5112369;27;9993;-76
2023/03/27 02:29:17;;;;;;;;;1.25;1.00;;;;;;;;5112409;27;10087;-76
2023/03/27 02:31:51;;;;;;;;;0.50;0.50;;;;;;;;5112813;27;8804;-76
2023/03/27 02:34:19;;;;;;;;;1.25;0.25;;;;;;;;5112322;28;10073;-76
2023/03/27 02:36:56;;;;;;;;;2.00;1.00;;;;;;;;5112070;28;10100;-76
2023/03/27 02:39:21;;;;;;;;;0.25;0.25;;;;;;;;5112016;28;10174;-76
2023/03/27 02:42:02;;;;;;;;;1.00;1.00;;;;;;;;5112482;28;10289;-76
2023/03/27 02:44:36;;;;;;;;;1.00;0.00;;;;;;;;5112392;28;8812;-76
2023/03/27 02:47:06;;;;;;;;;2.50;1.50;;;;;;;;5112469;27;9987;-76
2023/03/27 02:49:40;;;;;;;;;0.00;0.00;;;;;;;;5112168;27;10234;-76
2023/03/27 02:52:10;;;;;;;;;1.00;1.00;;;;;;;;5111743;27;10140;-76
2023/03/27 02:54:47;;;;;;;;;2.00;1.00;;;;;;;;5112100;27;10011;-76
2023/03/27 02:57:15;;;;;;;;;2.75;1.00;;;;;;;;5112450;27;10075;-76
2023/03/27 02:59:44;;;;;;;;;3.00;1.00;;;;;;;;5111239;28;10063;-76
2023/03/27 03:02:13;;;;;;;;;1.00;1.00;;;;;;;;5112310;27;10354;-76
2023/03/27 03:04:41;;;;;;;;;1.00;1.00;;;;;;;;5112352;27;10144;-76
2023/03/27 03:07:08;;;;;;;;;3.00;0.50;;;;;;;;5112248;27;10162;-76
2023/03/27 03:09:33;;;;;;;;;0.75;0.00;;;;;;;;5111939;28;10170;-76
2023/03/27 03:11:59;;;;;;;;;1.25;1.25;;;;;;;;5113402;28;10221;-76
2023/03/27 03:14:32;;;;;;;;;2.00;1.00;;;;;;;;5113964;28;8813;-73
2023/03/27 03:16:57;;;;;;;;;0.00;0.00;;;;;;;;5114685;28;8714;-75
2023/03/27 03:19:23;;;;;;;;;1.50;0.00;;;;;;;;5111766;27;10187;-76
2023/03/27 03:21:49;;;;;;;;;4.00;1.00;;;;;;;;5111509;27;8817;-76
2023/03/27 03:24:15;;;;;;;;;2.50;1.00;;;;;;;;5111877;27;8793;-75
2023/03/27 03:26:43;;;;;;;;;1.25;1.25;;;;;;;;5111975;27;8777;-75
2023/03/27 03:29:09;;;;;;;;;0.50;0.50;;;;;;;;5110337;28;10202;-75
2023/03/27 03:31:43;;;;;;;;;0.50;0.50;;;;;;;;5111703;28;10192;-75
2023/03/27 03:34:11;;;;;;;;;1.00;1.00;;;;;;;;5115061;27;8769;-75
2023/03/27 03:36:36;;;;;;;;;1.00;1.00;;;;;;;;5114974;27;10227;-76
2023/03/27 03:39:02;;;;;;;;;1.50;1.50;;;;;;;;5115616;28;10302;-75
2023/03/27 03:41:27;;;;;;;;;1.75;1.00;;;;;;;;5115111;27;8915;-76
2023/03/27 03:43:52;;;;;;;;;1.00;1.00;;;;;;;;5115108;27;8792;-76
2023/03/27 03:46:17;;;;;;;;;1.00;1.00;;;;;;;;5115082;28;8881;-75
2023/03/27 03:48:43;;;;;;;;;1.50;1.50;;;;;;;;5113896;28;8820;-75
2023/03/27 03:51:08;;;;;;;;;0.00;0.00;;;;;;;;5115057;28;9496;-76
2023/03/27 03:53:33;;;;;;;;;1.00;1.00;;;;;;;;5114846;28;8777;-75
2023/03/27 03:55:58;;;;;;;;;0.00;0.00;;;;;;;;5114923;28;8811;-75
2023/03/27 03:58:23;;;;;;;;;1.00;1.00;;;;;;;;5115049;28;8797;-75
2023/03/27 04:00:49;;;;;;;;;0.00;0.00;;;;;;;;5114924;28;9001;-75
2023/03/27 04:03:14;;;;;;;;;0.75;0.75;;;;;;;;5114761;27;8784;-75
2023/03/27 04:05:39;;;;;;;;;2.00;0.00;;;;;;;;5114604;28;8761;-75
2023/03/27 04:08:08;;;;;;;;;1.25;1.00;;;;;;;;5114778;28;8784;-75
2023/03/27 04:10:35;;;;;;;;;0.25;0.25;;;;;;;;5114903;27;8714;-75
2023/03/27 04:13:00;;;;;;;;;1.00;1.00;;;;;;;;5114731;27;10076;-75
2023/03/27 04:15:26;;;;;;;;;0.00;0.00;;;;;;;;5114423;27;10098;-76
2023/03/27 04:17:51;;;;;;;;;3.00;2.00;;;;;;;;5094343;27;8825;-74
2023/03/27 04:20:17;;;;;;;;;1.50;0.50;;;;;;;;5095597;28;8862;-75
2023/03/27 04:22:45;;;;;;;;;1.50;1.00;;;;;;;;5114639;27;8861;-75
2023/03/27 04:25:11;;;;;;;;;0.00;0.00;;;;;;;;5114767;27;8776;-74
2023/03/27 04:27:36;;;;;;;;;1.50;0.25;;;;;;;;5114670;27;10097;-74
2023/03/27 04:30:01;;;;;;;;;2.00;0.75;;;;;;;;5114791;28;9948;-74
2023/03/27 04:32:27;;;;;;;;;1.25;1.25;;;;;;;;5114479;27;8789;-74
2023/03/27 04:34:53;;;;;;;;;1.50;1.00;;;;;;;;5114703;27;8781;-74
2023/03/27 04:37:18;;;;;;;;;1.00;1.00;;;;;;;;5114523;27;8789;-74
2023/03/27 04:39:45;;;;;;;;;1.50;0.00;;;;;;;;5114429;28;10088;-74
2023/03/27 04:42:10;;;;;;;;;1.00;1.00;;;;;;;;5114142;27;8793;-75
2023/03/27 04:44:36;;;;;;;;;2.00;1.00;;;;;;;;5112839;27;10098;-74
2023/03/27 04:47:02;;;;;;;;;0.50;0.50;;;;;;;;5114270;27;8796;-74
2023/03/27 04:49:28;;;;;;;;;1.00;1.00;;;;;;;;5113867;27;9610;-74
2023/03/27 04:51:53;;;;;;;;;0.75;0.75;;;;;;;;5113963;27;8769;-75
2023/03/27 04:54:18;;;;;;;;;1.50;1.50;;;;;;;;5113972;28;8788;-75
2023/03/27 04:56:44;;;;;;;;;1.00;1.00;;;;;;;;5112663;28;8816;-75
2023/03/27 04:59:09;;;;;;;;;1.00;1.00;;;;;;;;5114226;28;8769;-74
2023/03/27 05:01:35;;;;;;;;;0.00;0.00;;;;;;;;5112409;28;10135;-74
2023/03/27 05:04:01;;;;;;;;;0.00;0.00;;;;;;;;5114021;27;8793;-74
2023/03/27 05:06:27;;;;;;;;;0.00;0.00;;;;;;;;5114008;27;8793;-74
2023/03/27 05:08:52;;;;;;;;;2.00;0.75;;;;;;;;5113573;27;10972;-74
2023/03/27 05:11:18;;;;;;;;;1.00;0.75;;;;;;;;5113625;27;10119;-74
2023/03/27 05:13:43;;;;;;;;;1.00;1.00;;;;;;;;5113974;28;8807;-74
2023/03/27 05:16:08;;;;;;;;;1.25;0.00;;;;;;;;5113297;27;8898;-75
2023/03/27 05:18:34;;;;;;;;;1.25;1.25;;;;;;;;5111935;28;8812;-75
2023/03/27 05:20:59;;;;;;;;;2.00;2.00;;;;;;;;5112580;28;8813;-74
2023/03/27 05:23:25;;;;;;;;;0.50;0.50;;;;;;;;5113350;28;8785;-75
2023/03/27 05:25:50;;;;;;;;;0.75;0.75;;;;;;;;5113446;27;8765;-74
2023/03/27 05:28:16;;;;;;;;;1.00;1.00;;;;;;;;5113672;27;8903;-75
2023/03/27 05:30:41;;;;;;;;;0.00;0.00;;;;;;;;5113182;27;8870;-75
2023/03/27 05:33:07;;;;;;;;;0.00;0.00;;;;;;;;5113533;27;8785;-75
2023/03/27 05:35:33;;;;;;;;;1.00;1.00;;;;;;;;5113031;27;8804;-75
2023/03/27 05:37:58;;;;;;;;;1.00;1.00;;;;;;;;5113090;27;11419;-74
2023/03/27 05:40:24;;;;;;;;;0.50;0.50;;;;;;;;5113313;27;8846;-75
2023/03/27 05:42:50;;;;;;;;;1.00;1.00;;;;;;;;5113096;27;8872;-74
2023/03/27 05:45:15;;;;;;;;;1.00;1.00;;;;;;;;5112603;27;8789;-77
2023/03/27 05:47:45;;;;;;;;;2.00;2.00;;;;;;;;5113500;27;8780;-74
2023/03/27 05:50:10;;;;;;;;;1.00;1.00;;;;;;;;5113223;27;8777;-75
2023/03/27 05:52:36;;;;;;;;;2.50;1.00;;;;;;;;5112726;28;10224;-74
2023/03/27 05:55:01;;;;;;;;;2.75;0.50;;;;;;;;5112742;27;8780;-74
2023/03/27 05:57:26;;;;;;;;;1.00;1.00;;;;;;;;5112879;28;8827;-74
2023/03/27 05:59:52;;;;;;;;;0.25;0.00;;;;;;;;5112623;28;8883;-74
2023/03/27 06:02:18;;;;;;;;;0.00;0.00;;;;;;;;5111365;28;9531;-74
2023/03/27 06:04:43;;;;;;;;;1.00;1.00;;;;;;;;5112786;28;8777;-74
2023/03/27 06:07:09;;;;;;;;;1.00;0.00;;;;;;;;5112786;27;8780;-73
2023/03/27 06:09:35;;;;;;;;;2.50;1.00;;;;;;;;5112777;27;9527;-74
2023/03/27 06:12:00;;;;;;;;;1.75;0.50;;;;;;;;5112636;27;8781;-74
2023/03/27 06:14:25;;;;;;;;;1.00;1.00;;;;;;;;5112606;28;8789;-74
2023/03/27 06:16:51;;;;;;;;;1.75;1.75;;;;;;;;5112415;27;8804;-74
2023/03/27 06:19:17;;;;;;;;;1.50;1.50;;;;;;;;5112681;27;8841;-74
2023/03/27 06:21:42;;;;;;;;;0.00;0.00;;;;;;;;5113004;27;10239;-74
2023/03/27 06:24:08;;;;;;;;;1.00;1.00;;;;;;;;5112609;27;8877;-74
2023/03/27 06:26:33;;;;;;;;;1.00;1.00;;;;;;;;5112750;27;8808;-74
2023/03/27 06:28:58;;;;;;;;;0.00;0.00;;;;;;;;5111631;28;8789;-74
2023/03/27 06:31:24;;;;;;;;;0.75;0.75;;;;;;;;5113547;28;8925;-73
2023/03/27 06:33:49;;;;;;;;;1.75;1.75;;;;;;;;5114227;27;8793;-74
2023/03/27 06:36:14;;;;;;;;;1.00;1.00;;;;;;;;5113492;28;8777;-74
2023/03/27 06:38:40;;;;;;;;;4.50;2.25;;;;;;;;5113778;27;8793;-74
2023/03/27 06:41:06;;;;;;;;;1.00;1.00;;;;;;;;5113792;27;8811;-74
2023/03/27 06:43:31;;;;;;;;;1.00;1.00;;;;;;;;5093199;28;11517;-74
2023/03/27 06:45:56;;;;;;;;;2.00;2.00;;;;;;;;5112287;28;8781;-74
2023/03/27 06:48:23;;;;;;;;;1.00;1.00;;;;;;;;5112304;27;8813;-74
2023/03/27 06:50:49;;;;;;;;;2.25;1.50;;;;;;;;5111921;27;8868;-74
2023/03/27 06:53:16;;;;;;;;;1.25;1.25;;;;;;;;5112079;27;10157;-74
2023/03/27 06:55:42;;;;;;;;;2.25;2.25;;;;;;;;5111824;27;10298;-74
2023/03/27 06:58:07;;;;;;;;;1.00;1.00;;;;;;;;5111779;27;10237;-74
2023/03/27 07:00:34;;;;;;;;;1.00;1.00;;;;;;;;5111584;27;9548;-74
2023/03/27 07:03:03;;;;;;;;;1.00;1.00;;;;;;;;5111846;27;8796;-74
2023/03/27 07:05:30;;;;;;;;;1.25;1.25;;;;;;;;5111778;27;10212;-74
2023/03/27 07:07:55;;;;;;;;;0.00;0.00;;;;;;;;5110919;27;10212;-74
2023/03/27 07:10:21;;;;;;;;;3.00;3.00;;;;;;;;5111902;28;10132;-75
2023/03/27 07:12:47;;;;;;;;;2.00;2.00;;;;;;;;5111553;27;8820;-74
2023/03/27 07:15:13;;;;;;;;;4.00;1.25;;;;;;;;5111768;27;8772;-73
2023/03/27 07:17:40;;;;;;;;;1.00;1.00;;;;;;;;5111639;27;10060;-74
2023/03/27 07:20:06;;;;;;;;;1.50;1.25;;;;;;;;5111722;27;8808;-75
2023/03/27 07:22:31;;;;;;;;;2.00;1.25;;;;;;;;5111440;27;10196;-76
2023/03/27 07:24:56;;;;;;;;;2.50;2.50;;;;;;;;5111746;27;8805;-76
2023/03/27 07:27:25;;;;;;;;;1.00;1.00;;;;;;;;5111337;28;8815;-75
2023/03/27 07:29:51;;;;;;;;;1.25;1.25;;;;;;;;5111666;27;9558;-75
2023/03/27 07:32:16;;;;;;;;;2.00;2.00;;;;;;;;5111635;28;10126;-76
2023/03/27 07:34:41;;;;;;;;;1.00;1.00;;;;;;;;5110209;27;8789;-76
2023/03/27 07:37:07;;;;;;;;;1.25;1.25;;;;;;;;5111241;28;8800;-76
2023/03/27 07:39:32;;;;;;;;;1.25;1.25;;;;;;;;5111234;28;8812;-75
2023/03/27 07:41:57;;;;;;;;;2.50;2.00;;;;;;;;5110017;28;8832;-76
2023/03/27 07:44:22;;;;;;;;;1.75;1.75;;;;;;;;5111637;28;8807;-76
2023/03/27 07:46:50;;;;;;;;;1.50;1.50;;;;;;;;5111066;27;8915;-76
2023/03/27 07:49:16;;;;;;;;;2.50;2.00;;;;;;;;5110866;27;8847;-75
2023/03/27 07:51:41;;;;;;;;;2.00;2.00;;;;;;;;5119012;27;10167;-76
2023/03/27 07:54:06;;;;;;;;;1.00;1.00;;;;;;;;5111466;28;8878;-76
2023/03/27 07:56:32;;;;;;;;;1.00;1.00;;;;;;;;5111303;28;9026;-76
2023/03/27 07:58:58;;;;;;;;;4.75;1.00;;;;;;;;5111725;27;8787;-76
2023/03/27 08:01:24;;;;;;;;;2.25;2.25;;;;;;;;5109784;28;9988;-76
2023/03/27 08:03:50;;;;;;;;;1.25;1.25;;;;;;;;5111055;27;8781;-76
2023/03/27 08:06:16;;;;;;;;;0.75;0.75;;;;;;;;5111007;27;10853;-76
2023/03/27 08:08:41;;;;;;;;;2.00;1.00;;;;;;;;5111225;28;10156;-76
2023/03/27 08:11:07;;;;;;;;;2.50;1.00;;;;;;;;5109620;28;8817;-75
2023/03/27 08:13:33;;;;;;;;;0.75;0.00;;;;;;;;5110984;27;8765;-74
2023/03/27 08:16:05;;;;;;;;;1.00;1.00;;;;;;;;5110760;27;9933;-74
2023/03/27 08:18:31;;;;;;;;;2.00;1.00;;;;;;;;5112594;27;8772;-74
2023/03/27 08:20:57;;;;;;;;;2.50;2.50;;;;;;;;5114344;28;9867;-74
2023/03/27 08:23:25;;;;;;;;;0.25;0.25;;;;;;;;5114174;27;8765;-74
2023/03/27 08:25:51;;;;;;;;;0.25;0.00;;;;;;;;5114313;27;9912;-75
2023/03/27 08:28:16;;;;;;;;;1.75;1.00;;;;;;;;5113882;27;9873;-74
2023/03/27 08:30:42;;;;;;;;;0.25;0.25;;;;;;;;5114367;28;8800;-75
2023/03/27 08:33:08;;;;;;;;;0.75;0.75;;;;;;;;5114223;27;8904;-75
2023/03/27 08:35:33;;;;;;;;;1.50;1.25;;;;;;;;5113799;27;8781;-74
2023/03/27 08:37:59;;;;;;;;;1.75;1.50;;;;;;;;5114147;27;10041;-75
2023/03/27 08:40:26;;;;;;;;;1.00;1.00;;;;;;;;5112580;27;8800;-74
2023/03/27 08:42:54;;;;;;;;;0.00;0.00;;;;;;;;5113863;27;8793;-74
2023/03/27 08:45:22;;;;;;;;;0.00;0.00;;;;;;;;5113831;27;10087;-74
2023/03/27 08:48:01;;;;;;;;;0.50;0.50;;;;;;;;5114161;27;10069;-74
2023/03/27 08:50:30;;;;;;;;;0.00;0.00;;;;;;;;5114026;27;9935;-75
2023/03/27 08:52:57;;;;;;;;;0.00;0.00;;;;;;;;5114276;27;9986;-75
2023/03/27 08:55:25;;;;;;;;;7.25;2.75;;;;;;;;5112081;28;10701;-75
2023/03/27 08:57:50;;;;;;;;;0.00;0.00;;;;;;;;5114012;27;10102;-75
2023/03/27 09:00:24;;;;;;;;;1.75;1.00;;;;;;;;5113655;27;10115;-75
2023/03/27 09:02:51;;;;;;;;;1.00;0.00;;;;;;;;5113387;28;8793;-76
2023/03/27 09:05:18;;;;;;;;;1.25;1.00;;;;;;;;5113684;27;9819;-76
2023/03/27 09:07:47;;;;;;;;;1.00;1.00;;;;;;;;5113906;27;9978;-75
2023/03/27 09:10:31;;;;;;;;;0.25;0.25;;;;;;;;5111634;28;10804;-75
2023/03/27 09:13:09;;;;;;;;;1.00;1.00;;;;;;;;5113229;27;10143;-76
2023/03/27 09:15:37;;;;;;;;;0.00;0.00;;;;;;;;5112939;28;10003;-76
2023/03/27 09:18:11;;;;;;;;;0.50;0.50;;;;;;;;5113620;27;9815;-77
2023/03/27 09:20:41;;;;;;;;;0.00;0.00;;;;;;;;5113300;28;9838;-76
2023/03/27 09:23:15;;;;;;;;;0.00;0.00;;;;;;;;5113135;27;9748;-76
2023/03/27 09:25:45;;;;;;;;;0.25;0.00;;;;;;;;5113239;27;9718;-76
2023/03/27 09:28:16;;;;;;;;;0.00;0.00;;;;;;;;5112724;27;10475;-76
2023/03/27 09:30:42;;;;;;;;;0.00;0.00;;;;;;;;5112780;28;9618;-76
2023/03/27 09:33:09;;;;;;;;;0.00;0.00;;;;;;;;5113512;28;9691;-76
2023/03/27 09:35:37;;;;;;;;;0.50;0.50;;;;;;;;5113352;27;8777;-76
2023/03/27 09:38:09;;;;;;;;;1.00;0.00;;;;;;;;5113145;27;9589;-76
2023/03/27 09:40:43;;;;;;;;;0.00;0.00;;;;;;;;5113570;27;9636;-76
2023/03/27 09:43:13;;;;;;;;;0.00;0.00;;;;;;;;5113465;27;10303;-76
2023/03/27 09:45:39;;;;;;;;;0.00;0.00;;;;;;;;5113314;27;9386;-77
2023/03/27 09:48:10;;;;;;;;;0.33;0.33;;;;;;;;5113528;27;9318;-76
2023/03/27 09:50:43;;;;;;;;;1.33;0.33;;;;;;;;5113177;27;9323;-76
2023/03/27 09:53:08;;;;;;;;;0.00;0.00;;;;;;;;5111997;28;9544;-76
2023/03/27 09:55:34;;;;;;;;;0.33;0.33;;;;;;;;5112728;27;9334;-76
2023/03/27 09:58:20;;;;;;;;;0.00;0.00;;;;;;;;5113019;27;8915;-76
2023/03/27 10:00:45;;;;;;;;;2.00;1.00;;;;;;;;5098964;28;9536;-76
2023/03/27 10:03:19;;;;;;;;;0.00;0.00;;;;;;;;5112332;28;9417;-76
2023/03/27 10:05:45;;;;;;;;;0.00;0.00;;;;;;;;5114888;27;8891;-77
2023/03/27 10:08:23;;;;;;;;;0.00;0.00;;;;;;;;5114843;27;9334;-77
2023/03/27 10:10:54;;;;;;;;;0.00;0.00;;;;;;;;5113904;28;9438;-77
2023/03/27 10:13:21;;;;;;;;;0.00;0.00;;;;;;;;5115204;27;9321;-77
2023/03/27 10:15:46;;;;;;;;;1.00;0.00;;;;;;;;5114366;27;9479;-77
2023/03/27 10:18:28;;;;;;;;;0.00;0.00;;;;;;;;5112776;27;9385;-77
2023/03/27 10:20:55;;;;;;;;;0.00;0.00;;;;;;;;5111310;28;8777;-76
2023/03/27 10:23:24;;;;;;;;;0.00;0.00;;;;;;;;5113565;27;9540;-75
2023/03/27 10:25:49;;;;;;;;;2.00;2.00;;;;;;;;5113127;27;9449;-76
2023/03/27 10:28:22;;;;;;;;;1.00;1.00;;;;;;;;5112346;27;9633;-76
2023/03/27 10:30:58;;;;;;;;;1.33;0.67;;;;;;;;5112655;27;8868;-76
2023/03/27 10:33:31;;;;;;;;;0.67;0.00;;;;;;;;5112677;27;9330;-76
2023/03/27 10:35:56;;;;;;;;;0.33;0.00;;;;;;;;5111920;27;9591;-75
2023/03/27 10:38:21;;;;;;;;;0.00;0.00;;;;;;;;5111048;28;10203;-77
2023/03/27 10:40:48;;;;;;;;;0.00;0.00;;;;;;;;5112218;28;8837;-75
2023/03/27 10:43:25;;;;;;;;;0.00;0.00;;;;;;;;5111903;27;8784;-75
2023/03/27 10:45:55;;;;;;;;;0.00;0.00;;;;;;;;5112100;28;9397;-74
2023/03/27 10:48:36;;;;;;;;;0.00;0.00;;;;;;;;5112098;27;9407;-75
2023/03/27 10:51:04;;;;;;;;;0.00;0.00;;;;;;;;5112148;27;9383;-74
2023/03/27 10:53:35;;;;;;;;;1.00;1.00;;;;;;;;5112773;27;9537;-77
2023/03/27 10:56:16;;;;;;;;;0.33;0.00;;;;;;;;5112922;27;9452;-77
2023/03/27 10:58:56;;;;;;;;;0.00;0.00;;;;;;;;5101222;27;9480;-78
2023/03/27 11:01:54;;;;;;;;;0.00;0.00;;;;;;;;5104497;28;10243;-74
2023/03/27 11:04:24;;;;;;;;;0.00;0.00;;;;;;;;5028914;28;9332;-76
2023/03/27 11:06:51;;;;;;;;;0.00;0.00;;;;;;;;5028922;28;9457;-75
2023/03/27 11:09:22;;;;;;;;;1.00;0.00;;;;;;;;5029013;28;9484;-76
2023/03/27 11:11:52;;;;;;;;;0.00;0.00;;;;;;;;5029202;28;9406;-75
2023/03/27 11:14:21;;;;;;;;;0.67;0.00;;;;;;;;5029348;28;9645;-76
2023/03/27 11:16:51;;;;;;;;;0.00;0.00;;;;;;;;5028833;28;9493;-77
2023/03/27 11:19:24;;;;;;;;;0.00;0.00;;;;;;;;5028827;28;9406;-76
2023/03/27 11:21:55;;;;;;;;;0.00;0.00;;;;;;;;5029218;28;9478;-76
2023/03/27 11:24:37;;;;;;;;;0.00;0.00;;;;;;;;5028556;28;9489;-75
2023/03/27 11:27:04;;;;;;;;;0.00;0.00;;;;;;;;5028614;28;9604;-75
2023/03/27 11:29:34;;;;;;;;;0.75;0.75;;;;;;;;5028677;28;9633;-76
2023/03/27 11:32:04;;;;;;;;;0.00;0.00;;;;;;;;5028771;28;9641;-75
2023/03/27 11:34:45;;;;;;;;;0.00;0.00;;;;;;;;5028611;28;9498;-74
2023/03/27 11:37:22;;;;;;;;;1.00;1.00;;;;;;;;5028771;28;9563;-75
2023/03/27 11:39:53;;;;;;;;;2.00;0.00;;;;;;;;5057683;28;9587;-75
2023/03/27 11:42:25;;;;;;;;;0.75;0.75;;;;;;;;5091687;28;9492;-75
2023/03/27 11:44:50;;;;;;;;;0.75;0.75;;;;;;;;5091011;28;9694;-75
2023/03/27 11:47:24;;;;;;;;;0.25;0.25;;;;;;;;5091149;28;9712;-75
2023/03/27 11:50:26;;;;;;;;;1.00;1.00;;;;;;;;5090867;28;8783;-77
2023/03/27 11:53:10;;;;;;;;;0.00;0.00;;;;;;;;5028896;28;9794;-75
2023/03/27 11:55:50;;;;;;;;;1.00;1.00;;;;;;;;5032138;28;9714;-75
2023/03/27 11:58:25;;;;;;;;;0.00;0.00;;;;;;;;5032194;28;9764;-76
2023/03/27 12:01:06;;;;;;;;;0.00;0.00;;;;;;;;5012283;28;9705;-75
2023/03/27 12:03:51;;;;;;;;;0.00;0.00;;;;;;;;5012004;28;9580;-76
2023/03/27 12:06:26;;;;;;;;;0.00;0.00;;;;;;;;5011206;28;9733;-74
2023/03/27 12:09:00;;;;;;;;;1.00;1.00;;;;;;;;5011779;28;9701;-74
2023/03/27 12:11:27;;;;;;;;;1.00;1.00;;;;;;;;5003114;28;9939;-75
2023/03/27 12:14:01;;;;;;;;;2.00;0.00;;;;;;;;5031650;28;9962;-74
2023/03/27 12:16:32;;;;;;;;;0.50;0.00;;;;;;;;5031574;28;9712;-75
2023/03/27 12:19:00;;;;;;;;;1.00;0.75;;;;;;;;5031961;28;9608;-74
2023/03/27 12:21:40;;;;;;;;;0.00;0.00;;;;;;;;5031814;28;9816;-75
2023/03/27 12:24:17;;;;;;;;;0.25;0.25;;;;;;;;5031563;28;9703;-75
2023/03/27 12:26:55;;;;;;;;;1.00;0.00;;;;;;;;5059883;28;9972;-74
2023/03/27 12:29:29;;;;;;;;;1.00;1.00;;;;;;;;5093931;28;9686;-75
2023/03/27 12:31:57;;;;;;;;;1.00;0.00;;;;;;;;5094106;28;9686;-75
2023/03/27 12:34:41;;;;;;;;;0.25;0.00;;;;;;;;5092768;28;9689;-75
2023/03/27 12:37:11;;;;;;;;;1.00;1.00;;;;;;;;5092406;28;9921;-76
2023/03/27 12:39:44;;;;;;;;;1.25;1.25;;;;;;;;5094144;28;9929;-76
2023/03/27 12:42:14;;;;;;;;;1.50;1.50;;;;;;;;5094049;28;9779;-76
2023/03/27 12:45:00;;;;;;;;;0.00;0.00;;;;;;;;5094004;28;9790;-76
2023/03/27 12:47:28;;;;;;;;;0.00;0.00;;;;;;;;5091633;27;9575;-76
2023/03/27 12:49:57;;;;;;;;;0.00;0.00;;;;;;;;5114349;27;9672;-76
2023/03/27 12:52:25;;;;;;;;;0.00;0.00;;;;;;;;5114322;27;9601;-76
2023/03/27 12:55:02;;;;;;;;;0.00;0.00;;;;;;;;5114038;27;9932;-76
2023/03/27 12:57:27;;;;;;;;;0.50;0.50;;;;;;;;5114096;28;9909;-76
2023/03/27 12:59:56;;;;;;;;;1.00;1.00;;;;;;;;5113827;28;9933;-76
2023/03/27 13:02:39;;;;;;;;;0.00;0.00;;;;;;;;5113964;27;8807;-75
2023/03/27 13:05:08;;;;;;;;;1.00;1.00;;;;;;;;5113138;28;9745;-76
2023/03/27 13:07:36;;;;;;;;;0.50;0.50;;;;;;;;5114314;27;10544;-76
2023/03/27 13:10:04;;;;;;;;;1.00;0.00;;;;;;;;5113928;28;9797;-75
2023/03/27 13:12:45;;;;;;;;;0.75;0.75;;;;;;;;5113821;27;10540;-75
2023/03/27 13:15:28;;;;;;;;;1.25;1.00;;;;;;;;5113498;28;9703;-75
2023/03/27 13:18:14;;;;;;;;;1.50;1.50;;;;;;;;5113396;27;9802;-75
2023/03/27 13:21:02;;;;;;;;;1.75;1.75;;;;;;;;5113576;27;9755;-74
2023/03/27 13:23:46;;;;;;;;;2.00;2.00;;;;;;;;5111589;28;10590;-75
2023/03/27 13:26:26;;;;;;;;;0.25;0.25;;;;;;;;5114009;27;9793;-73
2023/03/27 13:28:53;;;;;;;;;2.00;2.00;;;;;;;;5113927;27;9885;-74
2023/03/27 13:31:37;;;;;;;;;0.25;0.00;;;;;;;;5113520;27;9706;-74
2023/03/27 13:34:09;;;;;;;;;1.50;0.50;;;;;;;;5114162;28;9608;-74
2023/03/27 13:36:39;;;;;;;;;3.00;0.00;;;;;;;;5113852;27;9721;-75
2023/03/27 13:39:06;;;;;;;;;0.00;0.00;;;;;;;;5114433;27;9603;-75
2023/03/27 13:41:44;;;;;;;;;0.00;0.00;;;;;;;;5114548;27;9799;-75
2023/03/27 13:44:13;;;;;;;;;0.00;0.00;;;;;;;;5114971;27;9548;-74
2023/03/27 13:46:43;;;;;;;;;1.50;0.00;;;;;;;;5115427;27;9692;-75
2023/03/27 13:49:31;;;;;;;;;1.00;0.00;;;;;;;;5115226;27;9774;-75
2023/03/27 13:51:59;;;;;;;;;1.00;1.00;;;;;;;;5114454;27;9556;-75
2023/03/27 13:54:43;;;;;;;;;0.00;0.00;;;;;;;;5113007;27;9669;-75
2023/03/27 13:57:14;;;;;;;;;0.00;0.00;;;;;;;;5113306;28;9656;-75
2023/03/27 13:59:47;;;;;;;;;0.75;0.75;;;;;;;;5111546;28;9548;-76
2023/03/27 14:02:31;;;;;;;;;0.00;0.00;;;;;;;;5112939;27;9567;-74
2023/03/27 14:04:59;;;;;;;;;0.00;0.00;;;;;;;;5113072;28;9465;-74
2023/03/27 14:07:24;;;;;;;;;1.00;0.00;;;;;;;;5112832;27;9554;-74
2023/03/27 14:09:50;;;;;;;;;0.00;0.00;;;;;;;;5112800;28;9769;-75
2023/03/27 14:12:34;;;;;;;;;2.00;1.00;;;;;;;;5112878;27;8785;-75
2023/03/27 14:15:11;;;;;;;;;0.00;0.00;;;;;;;;5112702;27;9576;-76
2023/03/27 14:17:55;;;;;;;;;0.00;0.00;;;;;;;;5112474;27;9810;-76
2023/03/27 14:20:20;;;;;;;;;0.00;0.00;;;;;;;;5113142;27;9471;-76
2023/03/27 14:22:46;;;;;;;;;0.00;0.00;;;;;;;;5112759;27;9499;-75
2023/03/27 14:25:13;;;;;;;;;0.00;0.00;;;;;;;;5111685;27;8819;-75
2023/03/27 14:27:41;;;;;;;;;0.00;0.00;;;;;;;;5112641;27;8773;-75
2023/03/27 14:30:13;;;;;;;;;1.00;0.00;;;;;;;;5112486;27;9680;-75
2023/03/27 14:32:38;;;;;;;;;0.00;0.00;;;;;;;;5112654;27;9601;-76
2023/03/27 14:35:04;;;;;;;;;1.00;1.00;;;;;;;;5112350;27;9677;-76
2023/03/27 14:37:37;;;;;;;;;0.00;0.00;;;;;;;;5112614;27;8789;-76
2023/03/27 14:40:23;;;;;;;;;1.00;1.00;;;;;;;;5112412;27;8787;-76
2023/03/27 14:42:48;;;;;;;;;0.00;0.00;;;;;;;;5097950;27;9492;-75
2023/03/27 14:45:21;;;;;;;;;1.00;0.00;;;;;;;;5112445;27;9775;-75
2023/03/27 14:47:48;;;;;;;;;1.75;0.25;;;;;;;;5112067;27;8777;-76
2023/03/27 14:50:13;;;;;;;;;1.00;1.00;;;;;;;;5107661;27;9611;-75
2023/03/27 14:52:40;;;;;;;;;0.00;0.00;;;;;;;;5089256;27;9664;-76
2023/03/27 14:55:05;;;;;;;;;0.75;0.75;;;;;;;;5097266;27;8777;-75
2023/03/27 14:57:31;;;;;;;;;0.00;0.00;;;;;;;;5099766;27;9799;-75
2023/03/27 14:59:56;;;;;;;;;2.00;1.00;;;;;;;;5106743;28;9587;-75
2023/03/27 15:02:21;;;;;;;;;0.00;0.00;;;;;;;;5094074;28;8812;-76
2023/03/27 15:04:47;;;;;;;;;0.50;0.50;;;;;;;;5105564;28;8815;-76
2023/03/27 15:07:27;;;;;;;;;0.00;0.00;;;;;;;;5100099;28;8810;-76